sensor_id;sensor_type;location;lat;lon;timestamp;pressure;altitude;pressure_sealevel;temperature;humidity
65872;BME280;52653;50.080;21.992;2023-02-03T00:00:47;99315.42;;;1.38;87.49
65872;BME280;52653;50.080;21.992;2023-02-03T00:03:41;99323.70;;;1.37;87.22
65872;BME280;52653;50.080;21.992;2023-02-03T00:06:34;99326.40;;;1.35;87.25
65872;BME280;52653;50.080;21.992;2023-02-03T00:09:28;99330.07;;;1.36;87.37
65872;BME280;52653;50.080;21.992;2023-02-03T00:12:22;99339.67;;;1.33;87.03
65872;BME280;52653;50.080;21.992;2023-02-03T00:15:13;99344.89;;;1.29;86.94
65872;BME280;52653;50.080;21.992;2023-02-03T00:18:07;99354.92;;;1.25;86.44
65872;BME280;52653;50.080;21.992;2023-02-03T00:20:59;99362.61;;;1.27;86.57
65872;BME280;52653;50.080;21.992;2023-02-03T00:23:52;99367.25;;;1.31;86.67
65872;BME280;52653;50.080;21.992;2023-02-03T00:26:42;99371.36;;;1.30;86.40
65872;BME280;52653;50.080;21.992;2023-02-03T00:29:35;99374.20;;;1.27;86.70
65872;BME280;52653;50.080;21.992;2023-02-03T00:32:28;99381.16;;;1.24;87.20
65872;BME280;52653;50.080;21.992;2023-02-03T00:35:22;99384.86;;;1.20;87.30
65872;BME280;52653;50.080;21.992;2023-02-03T00:38:14;99385.54;;;1.20;87.41
65872;BME280;52653;50.080;21.992;2023-02-03T00:41:08;99385.03;;;1.20;87.49
65872;BME280;52653;50.080;21.992;2023-02-03T00:44:01;99389.05;;;1.22;87.42
65872;BME280;52653;50.080;21.992;2023-02-03T00:46:53;99393.09;;;1.17;87.24
65872;BME280;52653;50.080;21.992;2023-02-03T00:49:46;99394.23;;;1.15;87.54
65872;BME280;52653;50.080;21.992;2023-02-03T00:52:40;99399.33;;;1.13;87.91
65872;BME280;52653;50.080;21.992;2023-02-03T00:55:33;99405.38;;;1.03;89.29
65872;BME280;52653;50.080;21.992;2023-02-03T00:58:26;99403.39;;;0.85;90.77
65872;BME280;52653;50.080;21.992;2023-02-03T01:01:19;99405.47;;;0.70;91.21
65872;BME280;52653;50.080;21.992;2023-02-03T01:04:12;99405.05;;;0.64;91.10
65872;BME280;52653;50.080;21.992;2023-02-03T01:07:05;99410.00;;;0.56;91.25
65872;BME280;52653;50.080;21.992;2023-02-03T01:09:58;99417.35;;;0.50;91.33
65872;BME280;52653;50.080;21.992;2023-02-03T01:12:51;99418.08;;;0.46;91.36
65872;BME280;52653;50.080;21.992;2023-02-03T01:15:47;99428.27;;;0.42;91.48
65872;BME280;52653;50.080;21.992;2023-02-03T01:18:41;99432.73;;;0.41;91.48
65872;BME280;52653;50.080;21.992;2023-02-03T01:21:34;99427.89;;;0.40;91.38
65872;BME280;52653;50.080;21.992;2023-02-03T01:24:29;99427.03;;;0.41;91.22
65872;BME280;52653;50.080;21.992;2023-02-03T01:27:15;99428.23;;;0.40;91.09
65872;BME280;52653;50.080;21.992;2023-02-03T01:30:09;99429.16;;;0.42;90.84
65872;BME280;52653;50.080;21.992;2023-02-03T01:33:03;99432.47;;;0.43;90.73
65872;BME280;52653;50.080;21.992;2023-02-03T01:35:56;99439.14;;;0.41;90.50
65872;BME280;52653;50.080;21.992;2023-02-03T01:38:52;99440.34;;;0.41;90.28
65872;BME280;52653;50.080;21.992;2023-02-03T01:41:45;99443.20;;;0.39;90.17
65872;BME280;52653;50.080;21.992;2023-02-03T01:44:44;99441.73;;;0.37;90.25
65872;BME280;52653;50.080;21.992;2023-02-03T01:47:37;99444.18;;;0.33;90.21
65872;BME280;52653;50.080;21.992;2023-02-03T01:50:33;99444.90;;;0.29;89.99
65872;BME280;52653;50.080;21.992;2023-02-03T01:53:27;99453.15;;;0.28;90.05
65872;BME280;52653;50.080;21.992;2023-02-03T01:56:20;99459.05;;;0.25;89.94
65872;BME280;52653;50.080;21.992;2023-02-03T01:59:16;99459.61;;;0.26;90.23
65872;BME280;52653;50.080;21.992;2023-02-03T02:02:10;99450.87;;;0.27;90.48
65872;BME280;52653;50.080;21.992;2023-02-03T02:05:06;99447.31;;;0.29;90.48
65872;BME280;52653;50.080;21.992;2023-02-03T02:08:02;99446.04;;;0.32;90.48
65872;BME280;52653;50.080;21.992;2023-02-03T02:10:56;99448.15;;;0.33;90.38
65872;BME280;52653;50.080;21.992;2023-02-03T02:13:51;99455.80;;;0.35;90.29
65872;BME280;52653;50.080;21.992;2023-02-03T02:16:48;99457.27;;;0.37;89.84
65872;BME280;52653;50.080;21.992;2023-02-03T02:27:10;99459.88;;;0.34;88.37
65872;BME280;52653;50.080;21.992;2023-02-03T02:33:38;99464.38;;;0.28;88.24
65872;BME280;52653;50.080;21.992;2023-02-03T02:36:39;99469.77;;;0.30;88.65
65872;BME280;52653;50.080;21.992;2023-02-03T02:39:44;99467.75;;;0.31;89.24
65872;BME280;52653;50.080;21.992;2023-02-03T02:42:50;99470.55;;;0.32;89.84
65872;BME280;52653;50.080;21.992;2023-02-03T02:45:49;99474.66;;;0.32;89.83
65872;BME280;52653;50.080;21.992;2023-02-03T02:48:45;99480.70;;;0.32;89.53
65872;BME280;52653;50.080;21.992;2023-02-03T02:51:40;99483.26;;;0.31;89.15
65872;BME280;52653;50.080;21.992;2023-02-03T02:54:38;99480.30;;;0.25;88.91
65872;BME280;52653;50.080;21.992;2023-02-03T02:57:26;99479.94;;;0.20;88.65
65872;BME280;52653;50.080;21.992;2023-02-03T03:00:21;99476.55;;;0.18;88.63
65872;BME280;52653;50.080;21.992;2023-02-03T03:03:17;99475.58;;;0.14;88.91
65872;BME280;52653;50.080;21.992;2023-02-03T03:06:13;99475.74;;;0.10;88.77
65872;BME280;52653;50.080;21.992;2023-02-03T03:09:10;99478.44;;;0.08;89.11
65872;BME280;52653;50.080;21.992;2023-02-03T03:12:09;99483.77;;;0.08;88.89
65872;BME280;52653;50.080;21.992;2023-02-03T03:15:08;99482.36;;;0.08;89.17
65872;BME280;52653;50.080;21.992;2023-02-03T03:18:06;99485.67;;;0.08;89.25
65872;BME280;52653;50.080;21.992;2023-02-03T03:21:04;99486.89;;;0.09;89.37
65872;BME280;52653;50.080;21.992;2023-02-03T03:24:02;99487.02;;;0.07;89.53
65872;BME280;52653;50.080;21.992;2023-02-03T03:27:00;99487.26;;;0.05;89.47
65872;BME280;52653;50.080;21.992;2023-02-03T03:29:57;99485.92;;;0.01;89.58
65872;BME280;52653;50.080;21.992;2023-02-03T03:32:52;99484.53;;;-0.04;89.67
65872;BME280;52653;50.080;21.992;2023-02-03T03:35:41;99485.10;;;-0.07;89.58
65872;BME280;52653;50.080;21.992;2023-02-03T03:38:38;99490.19;;;-0.13;89.55
65872;BME280;52653;50.080;21.992;2023-02-03T03:41:38;99486.41;;;-0.22;89.54
65872;BME280;52653;50.080;21.992;2023-02-03T03:44:36;99488.84;;;-0.30;89.67
65872;BME280;52653;50.080;21.992;2023-02-03T03:47:34;99487.19;;;-0.37;89.83
65872;BME280;52653;50.080;21.992;2023-02-03T03:50:35;99486.05;;;-0.43;89.85
65872;BME280;52653;50.080;21.992;2023-02-03T03:53:29;99483.60;;;-0.49;89.83
65872;BME280;52653;50.080;21.992;2023-02-03T03:56:21;99478.52;;;-0.55;90.08
65872;BME280;52653;50.080;21.992;2023-02-03T03:59:17;99478.48;;;-0.61;89.98
65872;BME280;52653;50.080;21.992;2023-02-03T04:02:13;99479.47;;;-0.66;90.17
65872;BME280;52653;50.080;21.992;2023-02-03T04:05:10;99477.98;;;-0.68;90.06
65872;BME280;52653;50.080;21.992;2023-02-03T04:08:03;99480.48;;;-0.70;90.10
65872;BME280;52653;50.080;21.992;2023-02-03T04:10:56;99479.16;;;-0.74;90.07
65872;BME280;52653;50.080;21.992;2023-02-03T04:13:50;99482.35;;;-0.75;90.07
65872;BME280;52653;50.080;21.992;2023-02-03T04:16:43;99492.23;;;-0.77;89.98
65872;BME280;52653;50.080;21.992;2023-02-03T04:19:36;99496.30;;;-0.79;89.85
65872;BME280;52653;50.080;21.992;2023-02-03T04:22:29;99497.13;;;-0.80;89.82
65872;BME280;52653;50.080;21.992;2023-02-03T04:25:22;99499.74;;;-0.79;89.81
65872;BME280;52653;50.080;21.992;2023-02-03T04:28:15;99499.23;;;-0.79;89.58
65872;BME280;52653;50.080;21.992;2023-02-03T04:31:09;99502.54;;;-0.78;89.46
65872;BME280;52653;50.080;21.992;2023-02-03T04:33:45;99500.86;;;-0.77;89.12
65872;BME280;52653;50.080;21.992;2023-02-03T04:36:38;99503.05;;;-0.78;88.18
65872;BME280;52653;50.080;21.992;2023-02-03T04:39:29;99499.58;;;-0.75;88.26
65872;BME280;52653;50.080;21.992;2023-02-03T04:42:22;99502.73;;;-0.74;87.67
65872;BME280;52653;50.080;21.992;2023-02-03T04:45:16;99497.20;;;-0.74;87.12
65872;BME280;52653;50.080;21.992;2023-02-03T04:48:08;99497.45;;;-0.73;86.92
65872;BME280;52653;50.080;21.992;2023-02-03T04:51:03;99495.83;;;-0.70;86.69
65872;BME280;52653;50.080;21.992;2023-02-03T04:53:57;99495.05;;;-0.68;86.67
65872;BME280;52653;50.080;21.992;2023-02-03T04:56:51;99501.14;;;-0.66;86.32
65872;BME280;52653;50.080;21.992;2023-02-03T04:59:37;99502.20;;;-0.66;86.26
65872;BME280;52653;50.080;21.992;2023-02-03T05:02:31;99504.45;;;-0.66;85.80
65872;BME280;52653;50.080;21.992;2023-02-03T05:05:25;99504.30;;;-0.65;85.71
65872;BME280;52653;50.080;21.992;2023-02-03T05:08:20;99509.83;;;-0.64;85.32
65872;BME280;52653;50.080;21.992;2023-02-03T05:11:13;99506.23;;;-0.64;85.25
65872;BME280;52653;50.080;21.992;2023-02-03T05:14:07;99500.45;;;-0.67;85.32
65872;BME280;52653;50.080;21.992;2023-02-03T05:17:01;99504.46;;;-0.70;85.28
65872;BME280;52653;50.080;21.992;2023-02-03T05:19:55;99498.95;;;-0.74;85.26
65872;BME280;52653;50.080;21.992;2023-02-03T05:22:49;99506.50;;;-0.78;85.46
65872;BME280;52653;50.080;21.992;2023-02-03T05:25:44;99507.48;;;-0.83;85.61
65872;BME280;52653;50.080;21.992;2023-02-03T05:28:37;99511.89;;;-0.89;85.84
65872;BME280;52653;50.080;21.992;2023-02-03T05:31:32;99515.28;;;-0.95;86.12
65872;BME280;52653;50.080;21.992;2023-02-03T05:34:26;99513.86;;;-1.00;86.25
65872;BME280;52653;50.080;21.992;2023-02-03T05:37:19;99511.94;;;-1.04;86.47
65872;BME280;52653;50.080;21.992;2023-02-03T05:40:13;99516.63;;;-1.07;86.67
65872;BME280;52653;50.080;21.992;2023-02-03T05:43:24;99520.93;;;-1.11;86.62
65872;BME280;52653;50.080;21.992;2023-02-03T05:46:17;99523.45;;;-1.16;86.92
65872;BME280;52653;50.080;21.992;2023-02-03T05:49:10;99522.42;;;-1.21;87.04
65872;BME280;52653;50.080;21.992;2023-02-03T05:51:56;99526.94;;;-1.24;87.40
65872;BME280;52653;50.080;21.992;2023-02-03T05:54:49;99531.20;;;-1.25;87.40
65872;BME280;52653;50.080;21.992;2023-02-03T05:57:42;99532.61;;;-1.24;87.44
65872;BME280;52653;50.080;21.992;2023-02-03T06:00:36;99531.30;;;-1.22;87.41
65872;BME280;52653;50.080;21.992;2023-02-03T06:03:28;99530.08;;;-1.18;87.11
65872;BME280;52653;50.080;21.992;2023-02-03T06:06:22;99527.34;;;-1.14;86.62
65872;BME280;52653;50.080;21.992;2023-02-03T06:09:15;99528.71;;;-1.10;86.57
65872;BME280;52653;50.080;21.992;2023-02-03T06:12:10;99532.44;;;-1.08;86.68
65872;BME280;52653;50.080;21.992;2023-02-03T06:15:04;99525.67;;;-1.05;86.08
65872;BME280;52653;50.080;21.992;2023-02-03T06:17:57;99528.39;;;-1.02;86.12
65872;BME280;52653;50.080;21.992;2023-02-03T06:20:50;99529.64;;;-0.97;85.55
65872;BME280;52653;50.080;21.992;2023-02-03T06:23:43;99527.64;;;-0.91;85.12
65872;BME280;52653;50.080;21.992;2023-02-03T06:26:36;99519.88;;;-0.83;84.55
65872;BME280;52653;50.080;21.992;2023-02-03T06:29:28;99518.55;;;-0.75;84.75
65872;BME280;52653;50.080;21.992;2023-02-03T06:32:21;99515.41;;;-0.67;84.67
65872;BME280;52653;50.080;21.992;2023-02-03T06:35:10;99513.59;;;-0.61;84.05
65872;BME280;52653;50.080;21.992;2023-02-03T06:37:54;99514.93;;;-0.53;84.33
65872;BME280;52653;50.080;21.992;2023-02-03T06:40:48;99518.79;;;-0.44;84.50
65872;BME280;52653;50.080;21.992;2023-02-03T06:43:42;99510.44;;;-0.33;83.79
65872;BME280;52653;50.080;21.992;2023-02-03T06:46:28;99504.13;;;-0.23;83.53
65872;BME280;52653;50.080;21.992;2023-02-03T06:49:21;99504.90;;;-0.12;82.82
65872;BME280;52653;50.080;21.992;2023-02-03T06:52:14;99494.86;;;-0.04;82.36
65872;BME280;52653;50.080;21.992;2023-02-03T06:55:23;99495.33;;;0.03;81.67
65872;BME280;52653;50.080;21.992;2023-02-03T06:58:16;99494.96;;;0.08;80.79
65872;BME280;52653;50.080;21.992;2023-02-03T07:01:02;99491.33;;;0.12;80.48
65872;BME280;52653;50.080;21.992;2023-02-03T07:03:55;99492.27;;;0.18;80.71
65872;BME280;52653;50.080;21.992;2023-02-03T07:06:49;99487.89;;;0.21;79.81
65872;BME280;52653;50.080;21.992;2023-02-03T07:09:42;99479.14;;;0.27;80.39
65872;BME280;52653;50.080;21.992;2023-02-03T07:12:35;99478.03;;;0.29;79.67
65872;BME280;52653;50.080;21.992;2023-02-03T07:15:28;99480.27;;;0.34;79.89
65872;BME280;52653;50.080;21.992;2023-02-03T07:18:22;99478.80;;;0.41;80.11
65872;BME280;52653;50.080;21.992;2023-02-03T07:21:38;99481.55;;;0.50;79.66
65872;BME280;52653;50.080;21.992;2023-02-03T07:24:31;99477.39;;;0.54;79.09
65872;BME280;52653;50.080;21.992;2023-02-03T07:27:24;99478.13;;;0.61;78.82
65872;BME280;52653;50.080;21.992;2023-02-03T07:30:18;99472.60;;;0.65;77.77
65872;BME280;52653;50.080;21.992;2023-02-03T07:33:05;99464.91;;;0.67;78.07
65872;BME280;52653;50.080;21.992;2023-02-03T07:35:59;99464.81;;;0.74;77.50
65872;BME280;52653;50.080;21.992;2023-02-03T07:38:53;99463.11;;;0.79;76.65
65872;BME280;52653;50.080;21.992;2023-02-03T07:41:46;99459.57;;;0.87;76.84
65872;BME280;52653;50.080;21.992;2023-02-03T07:44:41;99457.93;;;0.94;76.25
65872;BME280;52653;50.080;21.992;2023-02-03T07:47:34;99452.80;;;0.96;76.20
65872;BME280;52653;50.080;21.992;2023-02-03T07:50:29;99445.55;;;0.96;75.93
65872;BME280;52653;50.080;21.992;2023-02-03T07:53:22;99443.17;;;0.97;76.62
65872;BME280;52653;50.080;21.992;2023-02-03T07:56:17;99441.46;;;0.98;76.01
65872;BME280;52653;50.080;21.992;2023-02-03T07:59:10;99430.73;;;0.97;76.29
65872;BME280;52653;50.080;21.992;2023-02-03T08:02:05;99423.27;;;1.01;76.54
65872;BME280;52653;50.080;21.992;2023-02-03T08:04:59;99424.66;;;1.06;76.24
65872;BME280;52653;50.080;21.992;2023-02-03T08:07:54;99424.09;;;1.05;75.54
65872;BME280;52653;50.080;21.992;2023-02-03T08:10:48;99416.77;;;1.02;75.24
65872;BME280;52653;50.080;21.992;2023-02-03T08:13:35;99415.02;;;1.02;75.18
65872;BME280;52653;50.080;21.992;2023-02-03T08:16:17;99417.82;;;1.08;75.47
65872;BME280;52653;50.080;21.992;2023-02-03T08:19:10;99417.35;;;1.15;75.38
65872;BME280;52653;50.080;21.992;2023-02-03T08:22:04;99413.02;;;1.25;75.40
65872;BME280;52653;50.080;21.992;2023-02-03T08:24:57;99408.88;;;1.42;75.59
65872;BME280;52653;50.080;21.992;2023-02-03T08:27:50;99406.01;;;1.66;75.45
65872;BME280;52653;50.080;21.992;2023-02-03T08:30:44;99396.86;;;1.84;74.31
65872;BME280;52653;50.080;21.992;2023-02-03T08:33:30;99388.41;;;1.96;73.82
65872;BME280;52653;50.080;21.992;2023-02-03T08:36:25;99386.15;;;2.02;72.79
65872;BME280;52653;50.080;21.992;2023-02-03T08:39:18;99381.11;;;2.06;72.11
65872;BME280;52653;50.080;21.992;2023-02-03T08:42:12;99383.35;;;2.06;71.24
65872;BME280;52653;50.080;21.992;2023-02-03T08:45:06;99381.91;;;1.99;70.67
65872;BME280;52653;50.080;21.992;2023-02-03T08:47:59;99379.41;;;1.96;70.85
65872;BME280;52653;50.080;21.992;2023-02-03T08:50:52;99377.83;;;2.13;71.57
65872;BME280;52653;50.080;21.992;2023-02-03T08:53:45;99373.50;;;2.25;70.73
65872;BME280;52653;50.080;21.992;2023-02-03T08:56:28;99369.79;;;2.34;71.21
65872;BME280;52653;50.080;21.992;2023-02-03T08:59:21;99369.14;;;2.49;70.56
65872;BME280;52653;50.080;21.992;2023-02-03T09:02:16;99361.23;;;2.52;68.95
65872;BME280;52653;50.080;21.992;2023-02-03T09:05:11;99357.10;;;2.58;69.66
65872;BME280;52653;50.080;21.992;2023-02-03T09:08:04;99345.28;;;2.57;69.00
65872;BME280;52653;50.080;21.992;2023-02-03T09:10:57;99340.20;;;2.48;68.00
65872;BME280;52653;50.080;21.992;2023-02-03T09:13:51;99339.35;;;2.49;67.84
65872;BME280;52653;50.080;21.992;2023-02-03T09:16:46;99337.01;;;2.45;66.98
65872;BME280;52653;50.080;21.992;2023-02-03T09:19:39;99339.08;;;2.44;67.23
65872;BME280;52653;50.080;21.992;2023-02-03T09:22:32;99337.02;;;2.45;66.73
65872;BME280;52653;50.080;21.992;2023-02-03T09:25:16;99331.17;;;2.41;66.52
65872;BME280;52653;50.080;21.992;2023-02-03T09:28:09;99322.53;;;2.41;67.05
65872;BME280;52653;50.080;21.992;2023-02-03T09:30:56;99323.86;;;2.45;66.82
65872;BME280;52653;50.080;21.992;2023-02-03T09:33:53;99319.46;;;2.56;67.80
65872;BME280;52653;50.080;21.992;2023-02-03T09:36:46;99310.76;;;2.67;67.88
65872;BME280;52653;50.080;21.992;2023-02-03T09:39:41;99304.21;;;2.76;67.34
65872;BME280;52653;50.080;21.992;2023-02-03T09:42:56;99303.66;;;2.88;67.17
65872;BME280;52653;50.080;21.992;2023-02-03T09:45:53;99299.60;;;2.92;65.18
65872;BME280;52653;50.080;21.992;2023-02-03T09:48:45;99297.45;;;2.96;66.00
65872;BME280;52653;50.080;21.992;2023-02-03T09:51:43;99293.03;;;3.01;64.97
65872;BME280;52653;50.080;21.992;2023-02-03T09:54:44;99286.25;;;3.00;65.15
65872;BME280;52653;50.080;21.992;2023-02-03T09:57:46;99285.27;;;3.02;65.25
65872;BME280;52653;50.080;21.992;2023-02-03T10:00:44;99279.06;;;3.11;65.67
65872;BME280;52653;50.080;21.992;2023-02-03T10:03:43;99267.60;;;3.17;65.41
65872;BME280;52653;50.080;21.992;2023-02-03T10:06:40;99263.13;;;3.27;66.18
65872;BME280;52653;50.080;21.992;2023-02-03T10:09:33;99256.77;;;3.37;66.23
65872;BME280;52653;50.080;21.992;2023-02-03T10:12:48;99245.52;;;3.45;65.07
65872;BME280;52653;50.080;21.992;2023-02-03T10:15:56;99239.00;;;3.48;65.03
65872;BME280;52653;50.080;21.992;2023-02-03T10:18:49;99230.29;;;3.46;65.01
65872;BME280;52653;50.080;21.992;2023-02-03T10:21:47;99223.57;;;3.41;64.61
65872;BME280;52653;50.080;21.992;2023-02-03T10:24:46;99221.13;;;3.40;65.03
65872;BME280;52653;50.080;21.992;2023-02-03T10:27:55;99218.00;;;3.47;64.76
65872;BME280;52653;50.080;21.992;2023-02-03T10:30:52;99212.91;;;3.62;64.55
65872;BME280;52653;50.080;21.992;2023-02-03T10:33:48;99207.55;;;3.80;64.35
65872;BME280;52653;50.080;21.992;2023-02-03T10:36:54;99203.77;;;3.92;63.78
65872;BME280;52653;50.080;21.992;2023-02-03T10:39:50;99198.82;;;3.95;62.28
65872;BME280;52653;50.080;21.992;2023-02-03T10:42:45;99195.28;;;3.93;61.46
65872;BME280;52653;50.080;21.992;2023-02-03T10:45:48;99188.81;;;3.90;61.89
65872;BME280;52653;50.080;21.992;2023-02-03T10:48:42;99183.42;;;3.89;61.76
65872;BME280;52653;50.080;21.992;2023-02-03T10:51:46;99169.13;;;3.84;61.26
65872;BME280;52653;50.080;21.992;2023-02-03T10:54:35;99164.48;;;3.87;62.33
65872;BME280;52653;50.080;21.992;2023-02-03T10:57:30;99155.63;;;3.97;63.07
65872;BME280;52653;50.080;21.992;2023-02-03T11:00:29;99144.10;;;4.03;62.46
65872;BME280;52653;50.080;21.992;2023-02-03T11:03:24;99132.10;;;4.11;62.35
65872;BME280;52653;50.080;21.992;2023-02-03T11:06:18;99123.34;;;4.16;61.32
65872;BME280;52653;50.080;21.992;2023-02-03T11:09:37;99113.41;;;4.14;60.55
65872;BME280;52653;50.080;21.992;2023-02-03T11:12:22;99108.75;;;4.16;59.86
65872;BME280;52653;50.080;21.992;2023-02-03T11:15:17;99096.25;;;4.17;60.28
65872;BME280;52653;50.080;21.992;2023-02-03T11:18:40;99092.36;;;4.22;60.30
65872;BME280;52653;50.080;21.992;2023-02-03T11:21:30;99082.48;;;4.35;60.95
65872;BME280;52653;50.080;21.992;2023-02-03T11:24:25;99073.20;;;4.53;61.11
65872;BME280;52653;50.080;21.992;2023-02-03T11:27:20;99068.91;;;4.69;61.03
65872;BME280;52653;50.080;21.992;2023-02-03T11:30:16;99064.03;;;4.81;60.45
65872;BME280;52653;50.080;21.992;2023-02-03T11:33:18;99055.27;;;4.89;59.63
65872;BME280;52653;50.080;21.992;2023-02-03T11:36:12;99051.66;;;4.93;59.41
65872;BME280;52653;50.080;21.992;2023-02-03T11:39:18;99042.27;;;4.92;58.43
65872;BME280;52653;50.080;21.992;2023-02-03T11:42:23;99031.11;;;4.89;58.71
65872;BME280;52653;50.080;21.992;2023-02-03T11:45:23;99020.69;;;4.89;59.00
65872;BME280;52653;50.080;21.992;2023-02-03T11:48:25;99016.71;;;4.92;58.73
65872;BME280;52653;50.080;21.992;2023-02-03T11:51:25;99001.27;;;4.94;58.86
65872;BME280;52653;50.080;21.992;2023-02-03T11:54:29;98996.65;;;4.99;58.72
65872;BME280;52653;50.080;21.992;2023-02-03T11:57:32;98988.04;;;4.91;57.92
65872;BME280;52653;50.080;21.992;2023-02-03T12:00:35;98978.19;;;4.81;57.93
65872;BME280;52653;50.080;21.992;2023-02-03T12:03:49;98970.77;;;4.69;58.22
65872;BME280;52653;50.080;21.992;2023-02-03T12:07:10;98955.95;;;4.64;59.23
65872;BME280;52653;50.080;21.992;2023-02-03T12:10:20;98937.48;;;4.60;58.50
65872;BME280;52653;50.080;21.992;2023-02-03T12:13:54;98922.28;;;4.54;57.55
65872;BME280;52653;50.080;21.992;2023-02-03T12:17:12;98911.47;;;4.48;57.94
65872;BME280;52653;50.080;21.992;2023-02-03T12:20:23;98902.66;;;4.54;58.52
65872;BME280;52653;50.080;21.992;2023-02-03T12:23:28;98894.95;;;4.62;58.68
65872;BME280;52653;50.080;21.992;2023-02-03T12:26:24;98888.00;;;4.61;58.16
65872;BME280;52653;50.080;21.992;2023-02-03T12:29:22;98885.73;;;4.61;58.31
65872;BME280;52653;50.080;21.992;2023-02-03T12:32:22;98879.70;;;4.65;58.70
65872;BME280;52653;50.080;21.992;2023-02-03T12:35:22;98868.48;;;4.71;58.54
65872;BME280;52653;50.080;21.992;2023-02-03T12:38:20;98853.54;;;4.71;57.93
65872;BME280;52653;50.080;21.992;2023-02-03T12:41:14;98837.73;;;4.71;58.13
65872;BME280;52653;50.080;21.992;2023-02-03T12:44:22;98834.45;;;4.72;58.13
65872;BME280;52653;50.080;21.992;2023-02-03T12:47:23;98821.25;;;4.74;58.62
65872;BME280;52653;50.080;21.992;2023-02-03T12:50:22;98813.78;;;4.75;58.16
65872;BME280;52653;50.080;21.992;2023-02-03T12:53:24;98803.88;;;4.75;58.77
65872;BME280;52653;50.080;21.992;2023-02-03T12:56:23;98795.50;;;4.71;58.74
65872;BME280;52653;50.080;21.992;2023-02-03T12:59:21;98781.70;;;4.62;58.12
65872;BME280;52653;50.080;21.992;2023-02-03T13:02:20;98771.52;;;4.50;57.69
65872;BME280;52653;50.080;21.992;2023-02-03T13:05:22;98764.20;;;4.46;58.45
65872;BME280;52653;50.080;21.992;2023-02-03T13:08:22;98754.61;;;4.43;57.96
65872;BME280;52653;50.080;21.992;2023-02-03T13:11:21;98750.02;;;4.35;57.61
65872;BME280;52653;50.080;21.992;2023-02-03T13:14:19;98740.55;;;4.26;57.75
65872;BME280;52653;50.080;21.992;2023-02-03T13:17:19;98735.42;;;4.16;58.05
65872;BME280;52653;50.080;21.992;2023-02-03T13:20:18;98729.44;;;4.07;58.47
65872;BME280;52653;50.080;21.992;2023-02-03T13:23:01;98720.02;;;4.04;59.34
65872;BME280;52653;50.080;21.992;2023-02-03T13:26:08;98713.13;;;4.06;60.08
65872;BME280;52653;50.080;21.992;2023-02-03T13:29:25;98710.70;;;4.06;59.58
65872;BME280;52653;50.080;21.992;2023-02-03T13:32:34;98707.63;;;3.95;59.10
65872;BME280;52653;50.080;21.992;2023-02-03T13:35:42;98694.30;;;3.83;59.25
65872;BME280;52653;50.080;21.992;2023-02-03T13:38:55;98684.65;;;3.72;59.41
65872;BME280;52653;50.080;21.992;2023-02-03T13:41:55;98678.27;;;3.59;59.28
65872;BME280;52653;50.080;21.992;2023-02-03T13:45:08;98670.15;;;3.47;59.64
65872;BME280;52653;50.080;21.992;2023-02-03T13:48:09;98657.89;;;3.37;60.22
65872;BME280;52653;50.080;21.992;2023-02-03T13:51:11;98647.23;;;3.30;60.87
65872;BME280;52653;50.080;21.992;2023-02-03T13:54:13;98641.23;;;3.20;60.95
65872;BME280;52653;50.080;21.992;2023-02-03T13:57:31;98638.48;;;3.08;60.93
65872;BME280;52653;50.080;21.992;2023-02-03T14:01:00;98630.71;;;2.96;61.41
65872;BME280;52653;50.080;21.992;2023-02-03T14:03:54;98613.39;;;2.84;61.74
65872;BME280;52653;50.080;21.992;2023-02-03T14:07:14;98607.73;;;2.76;61.66
65872;BME280;52653;50.080;21.992;2023-02-03T14:10:19;98604.33;;;2.67;62.07
65872;BME280;52653;50.080;21.992;2023-02-03T14:13:20;98591.77;;;2.60;62.55
65872;BME280;52653;50.080;21.992;2023-02-03T14:16:23;98585.59;;;2.52;62.43
65872;BME280;52653;50.080;21.992;2023-02-03T14:22:43;98574.80;;;2.35;63.09
65872;BME280;52653;50.080;21.992;2023-02-03T14:25:40;98569.81;;;2.25;62.55
65872;BME280;52653;50.080;21.992;2023-02-03T14:28:40;98553.05;;;2.15;62.73
65872;BME280;52653;50.080;21.992;2023-02-03T14:31:53;98546.02;;;2.07;63.34
65872;BME280;52653;50.080;21.992;2023-02-03T14:34:48;98533.95;;;1.98;64.26
65872;BME280;52653;50.080;21.992;2023-02-03T14:37:41;98524.89;;;1.93;65.04
65872;BME280;52653;50.080;21.992;2023-02-03T14:40:45;98523.05;;;1.87;66.01
65872;BME280;52653;50.080;21.992;2023-02-03T14:43:45;98509.80;;;1.79;67.09
65872;BME280;52653;50.080;21.992;2023-02-03T14:46:58;98496.17;;;1.70;68.49
65872;BME280;52653;50.080;21.992;2023-02-03T14:50:17;98493.94;;;1.60;69.92
65872;BME280;52653;50.080;21.992;2023-02-03T14:53:31;98486.17;;;1.51;71.10
65872;BME280;52653;50.080;21.992;2023-02-03T14:56:39;98477.05;;;1.43;72.34
65872;BME280;52653;50.080;21.992;2023-02-03T14:59:47;98463.61;;;1.34;73.14
65872;BME280;52653;50.080;21.992;2023-02-03T15:03:20;98452.11;;;1.28;73.99
65872;BME280;52653;50.080;21.992;2023-02-03T15:06:38;98445.23;;;1.19;75.27
65872;BME280;52653;50.080;21.992;2023-02-03T15:09:35;98433.49;;;1.10;76.02
65872;BME280;52653;50.080;21.992;2023-02-03T15:12:33;98417.58;;;0.98;77.38
65872;BME280;52653;50.080;21.992;2023-02-03T15:15:24;98416.00;;;0.88;78.20
65872;BME280;52653;50.080;21.992;2023-02-03T15:18:27;98405.48;;;0.78;78.54
65872;BME280;52653;50.080;21.992;2023-02-03T15:21:20;98395.47;;;0.68;79.40
65872;BME280;52653;50.080;21.992;2023-02-03T15:24:17;98390.48;;;0.59;79.71
65872;BME280;52653;50.080;21.992;2023-02-03T15:27:21;98389.14;;;0.52;80.39
65872;BME280;52653;50.080;21.992;2023-02-03T15:30:18;98379.02;;;0.46;80.97
65872;BME280;52653;50.080;21.992;2023-02-03T15:33:16;98368.23;;;0.40;81.32
65872;BME280;52653;50.080;21.992;2023-02-03T15:36:16;98364.52;;;0.36;81.68
65872;BME280;52653;50.080;21.992;2023-02-03T15:39:20;98359.25;;;0.31;82.37
65872;BME280;52653;50.080;21.992;2023-02-03T15:42:22;98349.96;;;0.24;82.85
65872;BME280;52653;50.080;21.992;2023-02-03T15:45:24;98350.86;;;0.16;83.71
65872;BME280;52653;50.080;21.992;2023-02-03T15:48:27;98337.27;;;0.10;84.26